Time;durP1;ratioP1;P1;durP2;ratioP2;P2;SDS_P1;SDS_P2;PMS_P1;PMS_P2;Temp;Humidity;BMP_temperature;BMP_pressure;BME280_temperature;BME280_humidity;BME280_pressure;Samples;Min_cycle;Max_cycle;Signal;HPM_P1;HPM_P2
2021/12/11 00:00:30;;;;;;;4.53;4.22;;;-0.60;99.90;;;;;;5049208;28;20724;-75
2021/12/11 00:03:02;;;;;;;5.72;5.35;;;-0.60;99.90;;;;;;5044473;28;21521;-74
2021/12/11 00:05:30;;;;;;;5.45;5.10;;;-0.60;99.90;;;;;;5048512;28;20578;-75
2021/12/11 00:07:58;;;;;;;4.28;3.97;;;-0.60;99.90;;;;;;5048751;28;20418;-75
2021/12/11 00:10:37;;;;;;;4.80;4.50;;;-0.60;99.90;;;;;;5049091;28;20245;-76
2021/12/11 00:13:08;;;;;;;4.90;4.60;;;-0.50;99.90;;;;;;5052307;28;20480;-75
2021/12/11 00:15:40;;;;;;;4.07;3.85;;;-0.60;99.90;;;;;;5041023;28;20234;-76
2021/12/11 00:18:13;;;;;;;5.07;4.78;;;-0.60;99.90;;;;;;5063916;28;20578;-76
2021/12/11 00:20:50;;;;;;;4.50;4.20;;;-0.50;99.90;;;;;;5067597;28;20253;-76
2021/12/11 00:23:19;;;;;;;4.53;4.22;;;-0.50;99.90;;;;;;5062853;28;20642;-77
2021/12/11 00:25:48;;;;;;;4.95;4.65;;;-0.50;99.90;;;;;;5077378;27;20603;-75
2021/12/11 00:30:59;;;;;;;5.18;4.78;;;-0.40;99.90;;;;;;5024449;28;20216;-80
2021/12/11 00:33:28;;;;;;;5.10;4.80;;;-0.40;99.90;;;;;;5027786;28;20220;-78
2021/12/11 00:35:56;;;;;;;4.88;4.55;;;-0.40;99.90;;;;;;5022046;28;20678;-78
2021/12/11 00:38:32;;;;;;;4.65;4.35;;;-0.40;99.90;;;;;;5029888;28;20223;-79
2021/12/11 00:41:01;;;;;;;3.80;3.60;;;-0.40;99.90;;;;;;5031640;28;20222;-79
2021/12/11 00:43:33;;;;;;;5.15;4.78;;;-0.40;99.90;;;;;;5030115;28;20238;-78
2021/12/11 00:46:01;;;;;;;4.75;4.45;;;-0.50;99.90;;;;;;5025188;28;20254;-78
2021/12/11 00:48:30;;;;;;;3.95;3.65;;;-0.50;99.90;;;;;;5025139;28;20265;-78
2021/12/11 00:51:00;;;;;;;5.00;4.70;;;-0.50;99.90;;;;;;5031926;28;20242;-79
2021/12/11 00:53:29;;;;;;;4.88;4.47;;;-0.50;99.90;;;;;;5027951;28;20230;-79
2021/12/11 00:56:01;;;;;;;4.75;4.45;;;-0.50;99.90;;;;;;5031187;28;20289;-81
2021/12/11 00:58:29;;;;;;;3.85;3.65;;;-0.40;99.90;;;;;;5029288;28;20219;-78
2021/12/11 01:00:59;;;;;;;4.40;4.13;;;-0.50;99.90;;;;;;5030319;28;20228;-77
2021/12/11 01:03:31;;;;;;;4.65;4.45;;;-0.50;99.90;;;;;;5030126;28;20265;-80
2021/12/11 01:06:01;;;;;;;3.90;3.65;;;-0.50;99.90;;;;;;5027718;28;20223;-78
2021/12/11 01:08:32;;;;;;;5.30;4.97;;;-0.50;99.90;;;;;;5028502;28;20226;-79
2021/12/11 01:11:07;;;;;;;4.60;4.30;;;-0.50;99.90;;;;;;5025199;28;20620;-78
2021/12/11 01:13:38;;;;;;;4.57;4.25;;;-0.50;99.90;;;;;;5031444;28;20285;-79
2021/12/11 01:16:12;;;;;;;4.90;4.60;;;-0.50;99.90;;;;;;5025034;28;20235;-78
2021/12/11 01:18:41;;;;;;;4.55;4.25;;;-0.50;99.90;;;;;;5026118;28;20373;-78
2021/12/11 01:21:29;;;;;;;5.05;4.65;;;-0.50;99.90;;;;;;5024531;28;20223;-78
2021/12/11 01:24:09;;;;;;;5.53;5.13;;;-0.50;99.90;;;;;;5027003;28;20219;-78
2021/12/11 01:26:41;;;;;;;4.57;4.28;;;-0.50;99.90;;;;;;5024892;28;20227;-78
2021/12/11 01:29:09;;;;;;;5.50;5.20;;;-0.50;99.90;;;;;;5035399;28;20243;-78
2021/12/11 01:31:37;;;;;;;4.38;4.07;;;-0.50;99.90;;;;;;5051688;28;20218;-80
2021/12/11 01:34:05;;;;;;;5.40;5.00;;;-0.50;99.90;;;;;;5045897;28;20238;-78
2021/12/11 01:36:33;;;;;;;5.22;4.82;;;-0.60;99.90;;;;;;5046360;28;20655;-77
2021/12/11 01:39:05;;;;;;;5.63;5.22;;;-0.60;99.90;;;;;;5046089;28;20218;-79
2021/12/11 01:41:32;;;;;;;4.90;4.60;;;-0.70;99.90;;;;;;5052089;28;20864;-77
2021/12/11 01:44:06;;;;;;;5.05;4.75;;;-0.80;99.90;;;;;;5046041;28;20218;-78
2021/12/11 01:46:33;;;;;;;5.10;4.80;;;-0.70;99.90;;;;;;5048971;28;20238;-79
2021/12/11 01:49:05;;;;;;;4.60;4.30;;;-0.70;99.90;;;;;;5046476;28;20276;-78
2021/12/11 01:51:35;;;;;;;4.85;4.55;;;-0.70;99.90;;;;;;5045867;28;20303;-77
2021/12/11 01:54:11;;;;;;;4.50;4.22;;;-0.70;99.90;;;;;;5043927;28;20227;-79
2021/12/11 01:56:41;;;;;;;4.95;4.65;;;-0.70;99.90;;;;;;5041640;28;20225;-78
2021/12/11 01:59:12;;;;;;;5.05;4.75;;;-0.70;99.90;;;;;;5046179;28;20227;-78
2021/12/11 02:01:44;;;;;;;5.05;4.75;;;-0.70;99.90;;;;;;5041693;28;20226;-79
2021/12/11 02:04:13;;;;;;;5.35;5.05;;;-0.70;99.90;;;;;;5044736;28;20667;-78
2021/12/11 02:06:43;;;;;;;5.32;4.93;;;-0.70;99.90;;;;;;5048925;28;20225;-78
2021/12/11 02:09:17;;;;;;;5.22;4.82;;;-0.70;99.90;;;;;;5046480;28;20754;-79
2021/12/11 02:11:46;;;;;;;5.95;5.55;;;-0.70;99.90;;;;;;5046449;28;20215;-80
2021/12/11 02:14:20;;;;;;;5.72;5.32;;;-0.70;99.90;;;;;;5045743;28;21230;-77
2021/12/11 02:16:50;;;;;;;5.05;4.75;;;-0.70;99.90;;;;;;5046941;28;20593;-80
2021/12/11 02:19:20;;;;;;;5.53;5.20;;;-0.70;99.90;;;;;;5047889;28;20237;-79
2021/12/11 02:21:56;;;;;;;5.68;5.28;;;-0.70;99.90;;;;;;5047348;28;20235;-78
2021/12/11 02:24:26;;;;;;;5.45;5.05;;;-0.70;99.90;;;;;;5046423;28;20229;-78
2021/12/11 02:26:55;;;;;;;5.32;4.93;;;-0.70;99.90;;;;;;5046852;28;20230;-78
2021/12/11 02:29:29;;;;;;;4.97;4.63;;;-0.70;99.90;;;;;;5045938;28;20288;-78
2021/12/11 02:32:02;;;;;;;5.30;4.90;;;-0.70;99.90;;;;;;5049436;28;20250;-81
2021/12/11 02:34:34;;;;;;;5.15;4.75;;;-0.70;99.90;;;;;;5036395;28;20304;-77
2021/12/11 02:37:07;;;;;;;5.78;5.43;;;-0.70;99.90;;;;;;5045836;28;20218;-79
2021/12/11 02:39:43;;;;;;;6.18;5.68;;;-0.70;99.90;;;;;;5048910;28;20250;-79
2021/12/11 02:42:15;;;;;;;5.28;4.97;;;-0.70;99.90;;;;;;5051913;28;20697;-79
2021/12/11 02:44:47;;;;;;;4.75;4.45;;;-0.70;99.90;;;;;;5051567;28;20237;-80
2021/12/11 02:47:19;;;;;;;4.70;4.35;;;-0.80;99.90;;;;;;5050071;28;20223;-80
2021/12/11 02:49:50;;;;;;;4.90;4.57;;;-0.80;99.90;;;;;;5052523;28;20222;-79
2021/12/11 02:52:22;;;;;;;4.38;4.07;;;-0.80;99.90;;;;;;5049951;28;20272;-80
2021/12/11 02:54:56;;;;;;;4.57;4.28;;;-0.80;99.90;;;;;;5047539;28;20300;-79
2021/12/11 02:57:30;;;;;;;6.90;4.95;;;-0.80;99.90;;;;;;5051520;28;20241;-80
2021/12/11 03:00:05;;;;;;;5.40;5.10;;;-0.80;99.90;;;;;;5050520;28;20226;-80
2021/12/11 03:02:32;;;;;;;5.15;4.85;;;-0.80;99.90;;;;;;5045353;28;20305;-78
2021/12/11 03:05:08;;;;;;;5.03;4.70;;;-0.80;99.90;;;;;;5048841;28;20234;-79
2021/12/11 03:07:39;;;;;;;5.68;5.28;;;-0.80;99.90;;;;;;5020523;28;20224;-80
2021/12/11 03:10:16;;;;;;;4.97;4.68;;;-0.80;99.90;;;;;;5024589;28;20226;-80
2021/12/11 03:12:45;;;;;;;4.80;4.55;;;-0.80;99.90;;;;;;5042730;28;20213;-79
2021/12/11 03:15:13;;;;;;;5.55;5.15;;;-0.80;99.90;;;;;;5052483;28;20222;-80
2021/12/11 03:17:40;;;;;;;4.80;4.50;;;-0.80;99.90;;;;;;5050833;28;20235;-80
2021/12/11 03:20:09;;;;;;;4.75;4.45;;;-0.90;99.90;;;;;;5050262;28;20697;-79
2021/12/11 03:22:38;;;;;;;5.55;5.15;;;-0.90;99.90;;;;;;5045894;28;20227;-79
2021/12/11 03:25:10;;;;;;;5.32;5.03;;;-0.80;99.90;;;;;;5051827;28;20226;-79
2021/12/11 03:27:37;;;;;;;5.15;4.80;;;-0.90;99.90;;;;;;5047918;28;20235;-79
2021/12/11 03:30:07;;;;;;;5.18;4.88;;;-0.90;99.90;;;;;;5044746;28;20229;-79
2021/12/11 03:32:34;;;;;;;4.30;4.03;;;-0.90;99.90;;;;;;5047832;28;20218;-79
2021/12/11 03:35:02;;;;;;;4.72;4.43;;;-1.00;99.90;;;;;;5046943;28;21012;-79
2021/12/11 03:37:29;;;;;;;4.82;4.53;;;-1.00;99.90;;;;;;5045210;28;20225;-79
2021/12/11 03:39:57;;;;;;;4.63;4.35;;;-0.90;99.90;;;;;;5045974;28;20225;-79
2021/12/11 03:42:28;;;;;;;4.93;4.63;;;-0.90;99.90;;;;;;5047584;28;20975;-79
2021/12/11 03:44:55;;;;;;;5.05;4.75;;;-0.90;99.90;;;;;;5048292;28;20227;-79
2021/12/11 03:47:26;;;;;;;4.47;4.28;;;-0.90;99.90;;;;;;5050232;28;20276;-79
2021/12/11 03:49:53;;;;;;;4.95;4.65;;;-0.90;99.90;;;;;;5049907;28;20235;-79
2021/12/11 03:52:21;;;;;;;5.15;4.85;;;-0.90;99.90;;;;;;5047941;28;20961;-78
2021/12/11 03:54:52;;;;;;;4.85;4.55;;;-1.00;99.90;;;;;;5048190;28;20653;-79
2021/12/11 03:57:23;;;;;;;4.93;4.63;;;-1.00;99.90;;;;;;5048431;28;20218;-79
2021/12/11 03:59:52;;;;;;;5.43;5.03;;;-1.00;99.90;;;;;;5053694;28;20233;-79
2021/12/11 04:02:23;;;;;;;5.57;5.18;;;-1.00;99.90;;;;;;5042545;28;20296;-78
2021/12/11 04:04:53;;;;;;;4.47;4.18;;;-1.00;99.90;;;;;;5045641;28;20218;-79
2021/12/11 04:07:25;;;;;;;5.40;5.00;;;-1.00;99.90;;;;;;5047074;28;20754;-78
2021/12/11 04:09:53;;;;;;;4.47;4.28;;;-1.00;99.90;;;;;;5047478;28;20370;-79
2021/12/11 04:12:24;;;;;;;3.88;3.58;;;-1.00;99.90;;;;;;5048589;28;20225;-79
2021/12/11 04:14:54;;;;;;;4.82;4.53;;;-1.00;99.90;;;;;;5050760;28;20227;-79
2021/12/11 04:17:26;;;;;;;5.35;5.05;;;-1.00;99.90;;;;;;5045191;28;20528;-79
2021/12/11 04:19:58;;;;;;;4.63;4.32;;;-1.00;99.90;;;;;;5052774;28;20226;-79
2021/12/11 04:22:26;;;;;;;4.60;4.30;;;-1.10;99.90;;;;;;5046843;28;20219;-79
2021/12/11 04:24:54;;;;;;;4.53;4.22;;;-1.10;99.90;;;;;;5053268;28;20253;-79
2021/12/11 04:27:25;;;;;;;4.88;4.57;;;-1.20;99.90;;;;;;5046616;28;20229;-79
2021/12/11 04:29:53;;;;;;;4.78;4.43;;;-1.20;99.90;;;;;;5046859;28;20230;-79
2021/12/11 04:32:22;;;;;;;5.35;5.05;;;-1.20;99.90;;;;;;5051184;28;20226;-78
2021/12/11 04:34:50;;;;;;;4.60;4.32;;;-1.20;99.90;;;;;;5046960;28;20227;-78
2021/12/11 04:37:20;;;;;;;4.50;4.20;;;-1.20;99.90;;;;;;5050682;28;20223;-79
2021/12/11 04:39:52;;;;;;;5.32;5.03;;;-1.20;99.90;;;;;;5046068;28;20231;-79
2021/12/11 04:42:31;;;;;;;5.03;4.72;;;-1.20;99.90;;;;;;5047735;28;20219;-79
2021/12/11 04:45:00;;;;;;;4.70;4.40;;;-1.20;99.90;;;;;;5048961;28;20233;-79
2021/12/11 04:47:35;;;;;;;4.97;4.68;;;-1.20;99.90;;;;;;5045853;28;20223;-79
2021/12/11 04:50:12;;;;;;;5.30;4.90;;;-1.20;99.90;;;;;;5048445;28;20214;-79
2021/12/11 04:52:50;;;;;;;4.22;4.03;;;-1.20;99.90;;;;;;5044240;28;20726;-79
2021/12/11 04:55:30;;;;;;;4.50;4.30;;;-1.20;99.90;;;;;;5047096;28;20238;-79
2021/12/11 05:00:57;;;;;;;5.13;4.80;;;-1.30;99.90;;;;;;5048552;28;20238;-79
2021/12/11 05:03:51;;;;;;;4.45;4.20;;;-1.20;99.90;;;;;;5045837;28;20222;-79
2021/12/11 05:06:39;;;;;;;5.05;4.75;;;-1.20;99.90;;;;;;5049476;28;20222;-79
2021/12/11 05:09:24;;;;;;;5.30;5.00;;;-1.10;99.90;;;;;;5043586;28;20226;-78
2021/12/11 05:12:06;;;;;;;5.18;4.78;;;-1.20;99.90;;;;;;5052177;28;20226;-78
2021/12/11 05:14:34;;;;;;;4.82;4.47;;;-1.20;99.90;;;;;;5041001;28;21275;-79
2021/12/11 05:17:03;;;;;;;4.72;4.43;;;-1.20;99.90;;;;;;5049339;28;20229;-80
2021/12/11 05:19:30;;;;;;;4.22;3.92;;;-1.20;99.90;;;;;;5040998;28;20218;-79
2021/12/11 05:21:57;;;;;;;4.63;4.32;;;-1.30;99.90;;;;;;5049281;28;20246;-78
2021/12/11 05:24:24;;;;;;;4.65;4.35;;;-1.30;99.90;;;;;;5048734;28;20242;-78
2021/12/11 05:26:51;;;;;;;4.85;4.50;;;-1.30;99.90;;;;;;5050855;28;20238;-80
2021/12/11 05:29:18;;;;;;;4.93;4.63;;;-1.30;99.90;;;;;;5049375;28;20226;-79
2021/12/11 05:31:46;;;;;;;4.72;4.43;;;-1.30;99.90;;;;;;5047533;28;20227;-79
2021/12/11 05:34:14;;;;;;;4.80;4.50;;;-1.30;99.90;;;;;;5057263;28;20238;-78
2021/12/11 05:36:42;;;;;;;4.85;4.55;;;-1.20;99.90;;;;;;5052438;28;20214;-79
2021/12/11 05:39:12;;;;;;;4.35;4.15;;;-1.30;99.90;;;;;;5054583;28;20234;-78
2021/12/11 05:41:40;;;;;;;4.00;3.75;;;-1.20;99.90;;;;;;5057417;28;20214;-78
2021/12/11 05:44:08;;;;;;;4.70;4.40;;;-1.20;99.90;;;;;;5049603;28;20281;-78
2021/12/11 05:46:35;;;;;;;4.78;4.47;;;-1.30;99.90;;;;;;5053324;28;20235;-78
2021/12/11 05:49:02;;;;;;;5.35;5.05;;;-1.30;99.90;;;;;;5048769;28;20604;-78
2021/12/11 05:51:37;;;;;;;4.03;3.72;;;-1.30;99.90;;;;;;5048034;28;20218;-79
2021/12/11 05:54:06;;;;;;;4.43;4.13;;;-1.30;99.90;;;;;;5042854;28;20786;-78
2021/12/11 05:56:36;;;;;;;4.57;4.28;;;-1.30;99.90;;;;;;5046734;28;20334;-79
2021/12/11 05:59:05;;;;;;;4.28;4.05;;;-1.30;99.90;;;;;;5048630;28;20239;-79
2021/12/11 06:01:35;;;;;;;4.20;4.00;;;-1.30;99.90;;;;;;5044615;28;20222;-78
2021/12/11 06:04:07;;;;;;;4.15;3.95;;;-1.30;99.90;;;;;;5049093;28;20222;-79
2021/12/11 06:06:37;;;;;;;4.70;4.50;;;-1.30;99.90;;;;;;5042201;28;20717;-79
2021/12/11 06:09:05;;;;;;;4.78;4.53;;;-1.30;99.90;;;;;;5047170;28;20296;-79
2021/12/11 06:11:33;;;;;;;4.43;4.13;;;-1.40;99.90;;;;;;5043893;28;20230;-78
2021/12/11 06:14:01;;;;;;;4.38;4.18;;;-1.30;99.90;;;;;;5050986;28;20277;-79
2021/12/11 06:16:28;;;;;;;4.50;4.20;;;-1.40;99.90;;;;;;5046125;28;20277;-80
2021/12/11 06:18:56;;;;;;;5.15;4.78;;;-1.30;99.90;;;;;;5044953;28;20223;-79
2021/12/11 06:21:23;;;;;;;4.13;3.92;;;-1.30;99.90;;;;;;5046166;28;20237;-80
2021/12/11 06:23:52;;;;;;;4.45;4.20;;;-1.40;99.90;;;;;;5044865;28;20237;-78
2021/12/11 06:26:19;;;;;;;4.30;4.10;;;-1.40;99.90;;;;;;5047168;28;20709;-79
2021/12/11 06:31:19;;;;;;;5.40;5.00;;;-1.40;99.90;;;;;;4991583;28;20282;-76
2021/12/11 06:33:47;;;;;;;4.80;4.50;;;-1.40;99.90;;;;;;4993719;28;20233;-76
2021/12/11 06:36:15;;;;;;;4.63;4.25;;;-1.40;99.90;;;;;;4997014;28;20278;-76
2021/12/11 06:38:45;;;;;;;5.22;4.90;;;-1.40;99.90;;;;;;4999028;28;20232;-76
2021/12/11 06:41:17;;;;;;;4.35;4.15;;;-1.40;99.90;;;;;;5018344;28;20219;-76
2021/12/11 06:43:44;;;;;;;4.97;4.60;;;-1.50;99.90;;;;;;5019762;28;20215;-76
2021/12/11 06:46:11;;;;;;;5.68;5.28;;;-1.50;99.90;;;;;;5020039;28;20228;-76
2021/12/11 06:48:39;;;;;;;5.00;4.70;;;-1.50;99.90;;;;;;5018491;28;20219;-76
2021/12/11 06:51:07;;;;;;;4.70;4.40;;;-1.50;99.90;;;;;;5016629;28;20686;-76
2021/12/11 06:53:38;;;;;;;4.43;4.13;;;-1.50;99.90;;;;;;5021644;28;20254;-76
2021/12/11 06:56:07;;;;;;;4.97;4.68;;;-1.50;99.90;;;;;;5008325;28;20515;-76
2021/12/11 06:58:36;;;;;;;4.55;4.25;;;-1.40;99.90;;;;;;5015906;28;20234;-76
2021/12/11 07:01:05;;;;;;;4.20;4.00;;;-1.40;99.90;;;;;;5022724;28;20393;-76
2021/12/11 07:03:32;;;;;;;4.65;4.35;;;-1.40;99.90;;;;;;5018734;28;20265;-74
2021/12/11 07:06:00;;;;;;;5.65;5.25;;;-1.40;99.90;;;;;;5023445;28;20638;-77
2021/12/11 07:08:29;;;;;;;4.10;3.83;;;-1.40;99.90;;;;;;5019374;28;20219;-76
2021/12/11 07:10:56;;;;;;;4.88;4.47;;;-1.40;99.90;;;;;;5014203;28;20289;-76
2021/12/11 07:13:24;;;;;;;4.18;3.97;;;-1.30;99.90;;;;;;5018374;28;20735;-76
2021/12/11 07:15:55;;;;;;;4.93;4.63;;;-1.30;99.90;;;;;;5019011;28;20235;-76
2021/12/11 07:18:22;;;;;;;5.30;5.00;;;-1.30;99.90;;;;;;5022094;28;20219;-76
2021/12/11 07:20:49;;;;;;;4.43;4.13;;;-1.40;99.90;;;;;;5024164;28;20231;-76
2021/12/11 07:23:17;;;;;;;5.57;5.22;;;-1.30;99.90;;;;;;5022742;28;20227;-76
2021/12/11 07:25:50;;;;;;;4.78;4.32;;;-1.20;99.90;;;;;;5022009;28;20219;-76
2021/12/11 07:28:18;;;;;;;4.57;4.28;;;-1.20;99.90;;;;;;5026124;28;20498;-76
2021/12/11 07:30:47;;;;;;;5.15;4.75;;;-1.20;99.90;;;;;;5022836;28;20234;-76
2021/12/11 07:33:16;;;;;;;5.15;4.75;;;-1.10;99.90;;;;;;5027833;28;20219;-76
2021/12/11 07:35:45;;;;;;;5.05;4.75;;;-1.10;99.90;;;;;;5022729;28;20300;-76
2021/12/11 07:38:12;;;;;;;5.20;4.90;;;-1.00;99.90;;;;;;5023030;28;20289;-76
2021/12/11 07:40:43;;;;;;;4.82;4.53;;;-1.00;99.90;;;;;;5026287;28;20219;-76
2021/12/11 07:43:11;;;;;;;4.40;4.10;;;-0.90;99.90;;;;;;5026382;28;20285;-76
2021/12/11 07:45:38;;;;;;;5.03;4.72;;;-0.80;99.90;;;;;;5025593;28;20216;-76
2021/12/11 07:48:06;;;;;;;5.38;5.00;;;-0.80;99.90;;;;;;5022441;28;20656;-76
2021/12/11 07:50:36;;;;;;;4.82;4.53;;;-0.80;99.90;;;;;;5041918;28;20289;-75
2021/12/11 07:53:04;;;;;;;5.55;5.05;;;-0.80;99.90;;;;;;5024649;28;20232;-76
2021/12/11 07:55:32;;;;;;;6.30;5.90;;;-0.80;99.90;;;;;;5024995;28;20246;-75
2021/12/11 07:58:00;;;;;;;5.43;5.13;;;-0.80;99.90;;;;;;5023593;28;20235;-76
2021/12/11 08:00:28;;;;;;;4.93;4.63;;;-0.70;99.90;;;;;;5009089;28;20223;-76
2021/12/11 08:02:56;;;;;;;5.68;5.28;;;-0.60;99.90;;;;;;5035297;28;20223;-77
2021/12/11 08:05:25;;;;;;;5.68;5.28;;;-0.50;99.90;;;;;;5024396;28;20216;-76
2021/12/11 08:07:55;;;;;;;5.93;5.53;;;-0.50;99.90;;;;;;5025527;28;20219;-76
2021/12/11 08:10:24;;;;;;;6.78;6.18;;;-0.30;99.90;;;;;;5022959;28;20223;-76
2021/12/11 08:12:51;;;;;;;6.40;5.78;;;-0.20;99.90;;;;;;5025453;28;20779;-76
2021/12/11 08:15:18;;;;;;;5.72;5.32;;;0.40;99.90;;;;;;4983468;28;20284;-77
2021/12/11 08:17:52;;;;;;;6.70;6.20;;;1.10;99.90;;;;;;5040611;28;20276;-75
2021/12/11 08:20:19;;;;;;;6.00;5.60;;;1.70;99.90;;;;;;5022873;28;20220;-76
2021/12/11 08:22:46;;;;;;;12.57;6.97;;;2.30;99.90;;;;;;5021155;28;20644;-75
2021/12/11 08:25:15;;;;;;;5.47;4.97;;;2.80;99.90;;;;;;5025877;28;20215;-76
2021/12/11 08:27:42;;;;;;;6.38;5.78;;;3.40;99.90;;;;;;5023186;28;20227;-76
2021/12/11 08:30:10;;;;;;;5.38;4.97;;;4.20;99.90;;;;;;5025219;28;20224;-76
2021/12/11 08:32:38;;;;;;;6.05;5.57;;;4.70;99.90;;;;;;5022822;28;20231;-74
2021/12/11 08:35:07;;;;;;;6.43;5.75;;;5.40;99.90;;;;;;5025358;28;20223;-76
2021/12/11 08:37:35;;;;;;;6.03;5.53;;;6.00;99.90;;;;;;5025766;28;20646;-77
2021/12/11 08:40:02;;;;;;;5.70;5.20;;;6.70;99.90;;;;;;5020166;28;20718;-76
2021/12/11 08:42:32;;;;;;;5.75;5.25;;;7.20;99.90;;;;;;5026425;28;20230;-78
2021/12/11 08:45:05;;;;;;;5.72;5.22;;;7.60;99.90;;;;;;5030246;28;20219;-76
2021/12/11 08:47:35;;;;;;;5.15;4.68;;;8.00;99.90;;;;;;5021377;28;21738;-77
2021/12/11 08:50:08;;;;;;;5.47;5.00;;;7.90;99.90;;;;;;5015069;28;20504;-76
2021/12/11 08:52:40;;;;;;;6.88;5.90;;;7.20;99.90;;;;;;5022146;28;20231;-76
2021/12/11 08:55:11;;;;;;;6.13;5.53;;;6.40;99.90;;;;;;5023970;28;20220;-74
2021/12/11 08:57:41;;;;;;;8.45;5.50;;;6.00;99.90;;;;;;5022118;28;20231;-75
2021/12/11 09:00:15;;;;;;;8.30;7.00;;;5.60;99.90;;;;;;5023393;28;20227;-76
2021/12/11 09:02:49;;;;;;;10.20;7.97;;;5.20;99.90;;;;;;5018941;28;20760;-73
2021/12/11 09:05:24;;;;;;;9.30;7.53;;;4.90;99.90;;;;;;5024854;28;20715;-76
2021/12/11 09:07:53;;;;;;;7.82;6.72;;;4.60;99.90;;;;;;5016678;28;20223;-77
2021/12/11 09:10:25;;;;;;;7.05;6.18;;;4.20;99.90;;;;;;5021118;28;20269;-77
2021/12/11 09:12:59;;;;;;;6.53;5.80;;;3.90;99.90;;;;;;5021540;28;20582;-77
2021/12/11 09:15:30;;;;;;;7.00;6.40;;;3.60;99.90;;;;;;5016940;28;20246;-75
2021/12/11 09:17:59;;;;;;;6.95;6.35;;;3.60;99.90;;;;;;5010569;28;20232;-76
2021/12/11 09:20:33;;;;;;;6.22;5.63;;;3.50;99.90;;;;;;5007055;28;20219;-76
2021/12/11 09:23:10;;;;;;;5.95;5.45;;;3.80;99.90;;;;;;5012211;28;20246;-76
2021/12/11 09:25:44;;;;;;;7.50;6.80;;;4.30;99.90;;;;;;5009844;28;20235;-76
2021/12/11 09:28:16;;;;;;;7.97;7.25;;;5.10;99.90;;;;;;4997098;28;20247;-76
2021/12/11 09:30:48;;;;;;;7.63;6.82;;;5.70;99.90;;;;;;5001740;28;20226;-74
2021/12/11 09:33:18;;;;;;;7.40;6.70;;;5.60;99.90;;;;;;5014288;28;20243;-76
2021/12/11 09:35:52;;;;;;;7.60;5.82;;;5.60;99.90;;;;;;5003158;28;20246;-76
2021/12/11 09:38:24;;;;;;;6.10;5.53;;;5.60;99.90;;;;;;5025435;28;20227;-77
2021/12/11 09:40:54;;;;;;;6.10;5.57;;;6.00;99.90;;;;;;5013362;28;20228;-74
2021/12/11 09:43:41;;;;;;;6.20;5.70;;;6.30;99.90;;;;;;4982685;28;20563;-76
2021/12/11 09:46:12;;;;;;;6.40;5.80;;;6.10;99.90;;;;;;4971278;28;20239;-76
2021/12/11 09:48:40;;;;;;;5.95;5.45;;;6.10;99.90;;;;;;5014547;28;20257;-76
2021/12/11 09:51:12;;;;;;;6.15;5.55;;;6.10;99.90;;;;;;5011988;28;20235;-74
2021/12/11 09:53:42;;;;;;;6.25;5.65;;;6.00;99.90;;;;;;5011211;28;20220;-76
2021/12/11 09:56:13;;;;;;;6.80;5.70;;;5.80;99.90;;;;;;4989423;28;20239;-76
2021/12/11 09:58:42;;;;;;;7.03;6.40;;;5.60;99.90;;;;;;5023585;28;20227;-75
2021/12/11 10:01:14;;;;;;;6.45;5.70;;;5.30;99.90;;;;;;5011554;28;20760;-74
2021/12/11 10:03:47;;;;;;;6.35;5.75;;;4.90;99.90;;;;;;5007375;28;20553;-76
2021/12/11 10:06:37;;;;;;;6.68;6.07;;;4.60;99.90;;;;;;5008942;28;20228;-75
2021/12/11 10:09:17;;;;;;;6.47;5.88;;;4.50;99.90;;;;;;5004763;28;20239;-77
2021/12/11 10:11:51;;;;;;;6.50;5.97;;;4.20;99.90;;;;;;5003266;28;20510;-75
2021/12/11 10:14:23;;;;;;;11.52;10.00;;;4.20;99.90;;;;;;5003620;28;20790;-78
2021/12/11 10:16:54;;;;;;;7.75;7.05;;;4.00;99.90;;;;;;5004665;28;20566;-78
2021/12/11 10:19:24;;;;;;;17.05;7.57;;;4.10;99.90;;;;;;5013237;28;20234;-77
2021/12/11 10:21:56;;;;;;;9.25;8.35;;;4.30;99.90;;;;;;5009724;28;20672;-79
2021/12/11 10:24:27;;;;;;;8.55;7.75;;;4.80;99.90;;;;;;5012458;28;20296;-78
2021/12/11 10:26:57;;;;;;;7.70;7.00;;;5.40;99.90;;;;;;5003653;28;20231;-75
2021/12/11 10:29:26;;;;;;;6.60;6.00;;;5.80;99.90;;;;;;5010572;28;20231;-75
2021/12/11 10:31:57;;;;;;;6.78;6.18;;;5.90;99.90;;;;;;5015499;28;20317;-77
2021/12/11 10:34:26;;;;;;;14.55;9.50;;;5.90;99.90;;;;;;5020269;28;20231;-76
2021/12/11 10:36:58;;;;;;;19.92;12.40;;;6.10;99.90;;;;;;5010979;28;20242;-77
2021/12/11 10:39:26;;;;;;;41.22;21.67;;;6.30;99.90;;;;;;5010198;28;21011;-77
2021/12/11 10:41:54;;;;;;;56.05;27.52;;;6.50;99.90;;;;;;5012744;28;20215;-76
2021/12/11 10:44:24;;;;;;;30.77;16.83;;;6.70;99.90;;;;;;5013956;28;20223;-75
2021/12/11 10:46:57;;;;;;;16.55;10.93;;;7.30;99.90;;;;;;5012213;28;20231;-75
2021/12/11 10:49:24;;;;;;;13.00;7.85;;;7.90;99.90;;;;;;5010361;28;20653;-76
2021/12/11 10:51:54;;;;;;;6.55;5.72;;;8.40;99.90;;;;;;5010423;28;20295;-76
2021/12/11 10:54:21;;;;;;;5.57;4.82;;;8.90;99.90;;;;;;5014629;28;20220;-75
2021/12/11 10:56:49;;;;;;;4.70;4.13;;;9.40;99.90;;;;;;5012832;28;20538;-77
2021/12/11 10:59:19;;;;;;;4.70;4.28;;;9.70;99.90;;;;;;4984733;28;20273;-77
2021/12/11 11:01:51;;;;;;;5.13;4.63;;;9.90;99.90;;;;;;4982305;28;20231;-76
2021/12/11 11:04:22;;;;;;;5.82;5.22;;;10.30;99.90;;;;;;5009054;28;20305;-77
2021/12/11 11:06:50;;;;;;;7.20;5.35;;;10.50;99.90;;;;;;5013941;28;20228;-76
2021/12/11 11:09:19;;;;;;;4.78;4.38;;;10.30;99.90;;;;;;4988905;28;20920;-76
2021/12/11 11:11:49;;;;;;;4.40;4.00;;;10.60;99.90;;;;;;5009306;28;20901;-77
2021/12/11 11:14:18;;;;;;;4.60;4.20;;;10.50;99.90;;;;;;4988082;28;20211;-77
2021/12/11 11:16:51;;;;;;;5.88;5.38;;;10.70;99.90;;;;;;5012835;28;20506;-77
2021/12/11 11:19:20;;;;;;;6.30;5.70;;;10.70;99.90;;;;;;5011602;28;20235;-77
2021/12/11 11:21:50;;;;;;;6.05;5.45;;;10.90;99.90;;;;;;5016308;28;20306;-75
2021/12/11 11:24:17;;;;;;;6.43;5.22;;;11.20;99.90;;;;;;5008222;28;20757;-77
2021/12/11 11:26:48;;;;;;;5.50;5.00;;;11.40;99.90;;;;;;5023935;28;20234;-76
2021/12/11 11:29:18;;;;;;;5.50;5.10;;;11.40;99.90;;;;;;5018007;28;20249;-74
2021/12/11 11:31:47;;;;;;;5.20;4.40;;;11.70;99.90;;;;;;5012843;28;20231;-77
2021/12/11 11:34:20;;;;;;;7.57;5.90;;;11.90;99.90;;;;;;5009571;28;20854;-77
2021/12/11 11:36:50;;;;;;;8.23;5.30;;;11.80;99.90;;;;;;5010098;28;20705;-77
2021/12/11 11:39:21;;;;;;;7.65;5.47;;;11.30;99.90;;;;;;5012035;28;20227;-78
2021/12/11 11:41:51;;;;;;;5.50;5.00;;;11.20;99.90;;;;;;5013776;28;20231;-77
2021/12/11 11:44:19;;;;;;;6.13;4.88;;;11.40;99.90;;;;;;5017264;28;20223;-75
2021/12/11 11:46:47;;;;;;;4.97;4.47;;;11.40;99.90;;;;;;5010361;28;20612;-76
2021/12/11 11:49:17;;;;;;;5.72;5.00;;;11.30;99.90;;;;;;5010471;28;20281;-75
2021/12/11 11:51:50;;;;;;;4.97;4.47;;;10.90;99.90;;;;;;5010218;28;20800;-75
2021/12/11 11:54:19;;;;;;;8.55;5.93;;;10.50;99.90;;;;;;5008911;28;20228;-77
2021/12/11 11:56:51;;;;;;;5.00;4.50;;;10.70;99.90;;;;;;5011361;28;20285;-76
2021/12/11 11:59:19;;;;;;;5.43;4.93;;;10.80;99.90;;;;;;5014934;28;20234;-76
2021/12/11 12:01:51;;;;;;;16.60;10.30;;;10.90;99.90;;;;;;5009783;28;20516;-75
2021/12/11 12:04:21;;;;;;;8.40;6.85;;;11.00;99.90;;;;;;5008086;28;20223;-74
2021/12/11 12:06:59;;;;;;;8.90;5.63;;;11.10;99.90;;;;;;5010407;28;20227;-76
2021/12/11 12:09:27;;;;;;;5.40;4.90;;;11.10;99.90;;;;;;5012180;28;20652;-73
2021/12/11 12:11:57;;;;;;;8.43;7.53;;;11.10;99.90;;;;;;5015613;28;20222;-76
2021/12/11 12:14:30;;;;;;;6.07;5.47;;;11.10;99.90;;;;;;5014166;28;20215;-73
2021/12/11 12:16:57;;;;;;;6.30;5.20;;;11.20;99.90;;;;;;4985889;28;20667;-76
2021/12/11 12:19:26;;;;;;;7.95;5.68;;;11.10;99.90;;;;;;5012324;28;20235;-76
2021/12/11 12:21:57;;;;;;;6.57;5.97;;;11.20;99.90;;;;;;5030309;28;20224;-74
2021/12/11 12:24:27;;;;;;;7.30;6.47;;;11.20;99.90;;;;;;5013778;28;20964;-73
2021/12/11 12:26:55;;;;;;;9.13;6.68;;;11.10;99.90;;;;;;4993875;28;20921;-73
2021/12/11 12:29:22;;;;;;;6.15;5.55;;;11.00;99.90;;;;;;4980272;28;20367;-76
2021/12/11 12:31:56;;;;;;;5.63;5.03;;;10.70;99.90;;;;;;5005066;28;20223;-74
2021/12/11 12:34:23;;;;;;;5.53;5.03;;;10.40;99.90;;;;;;5009871;28;20259;-73
2021/12/11 12:36:52;;;;;;;5.43;4.70;;;10.50;99.90;;;;;;5016010;28;20252;-74
2021/12/11 12:39:25;;;;;;;9.00;5.10;;;10.80;99.90;;;;;;5013497;28;20231;-74
2021/12/11 12:42:03;;;;;;;6.80;4.85;;;11.00;99.90;;;;;;5010732;28;20235;-75
2021/12/11 12:44:31;;;;;;;5.47;4.97;;;11.10;99.90;;;;;;5013202;28;20255;-74
2021/12/11 12:47:02;;;;;;;6.80;5.05;;;10.80;99.90;;;;;;5011014;28;20231;-75
2021/12/11 12:49:35;;;;;;;5.70;5.20;;;10.30;99.90;;;;;;5015956;28;20226;-74
2021/12/11 12:52:08;;;;;;;5.60;5.10;;;10.20;99.90;;;;;;5015353;28;20223;-75
2021/12/11 12:54:36;;;;;;;5.72;5.20;;;10.20;99.90;;;;;;4996937;28;20378;-76
2021/12/11 12:57:13;;;;;;;6.47;5.88;;;10.40;99.90;;;;;;5016182;28;20281;-75
2021/12/11 12:59:43;;;;;;;8.05;5.75;;;10.50;99.90;;;;;;5015778;28;20231;-75
2021/12/11 13:02:17;;;;;;;5.32;4.82;;;10.60;99.90;;;;;;4988295;28;20223;-75
2021/12/11 13:04:49;;;;;;;6.93;6.32;;;10.80;99.90;;;;;;5013892;28;20217;-75
2021/12/11 13:07:17;;;;;;;8.20;6.90;;;11.00;99.90;;;;;;5010831;28;20706;-73
2021/12/11 13:09:49;;;;;;;5.30;4.80;;;11.00;99.90;;;;;;5012445;28;20706;-75
2021/12/11 13:12:21;;;;;;;6.70;6.03;;;11.00;99.90;;;;;;5011661;28;20235;-72